createdAt,value
2023-10-04T00:02:14.948Z,86.81
2023-10-04T00:04:45.468Z,86.03
2023-10-04T00:07:13.147Z,86.70
2023-10-04T00:09:40.418Z,88.82
2023-10-04T00:12:09.758Z,88.72
2023-10-04T00:14:37.115Z,88.04
2023-10-04T00:17:04.300Z,86.64
2023-10-04T00:19:33.695Z,87.24
2023-10-04T00:22:03.156Z,88.32
2023-10-04T00:24:30.275Z,88.41
2023-10-04T00:26:58.741Z,87.97
2023-10-04T00:29:27.148Z,87.80
2023-10-04T00:31:54.416Z,88.79
2023-10-04T00:34:21.497Z,88.02
2023-10-04T00:36:49.579Z,87.79
2023-10-04T00:39:16.960Z,87.41
2023-10-04T00:41:44.519Z,87.03
2023-10-04T00:44:12.192Z,87.18
2023-10-04T00:46:43.173Z,87.05
2023-10-04T00:49:10.514Z,86.96
2023-10-04T00:51:38.484Z,87.21
2023-10-04T00:54:09.534Z,87.04
2023-10-04T00:56:40.135Z,87.03
2023-10-04T00:59:08.782Z,87.49
2023-10-04T01:01:42.027Z,88.02
2023-10-04T01:04:10.481Z,87.87
2023-10-04T01:06:38.920Z,88.13
2023-10-04T01:09:07.713Z,88.25
2023-10-04T01:11:36.930Z,88.22
2023-10-04T01:14:19.832Z,88.40
2023-10-04T01:16:46.816Z,88.21
2023-10-04T01:19:17.362Z,88.35
2023-10-04T01:21:44.943Z,89.72
2023-10-04T01:24:12.481Z,89.60
2023-10-04T01:26:40.390Z,88.55
2023-10-04T01:29:13.150Z,87.76
2023-10-04T01:31:40.642Z,88.87
2023-10-04T01:34:07.807Z,89.95
2023-10-04T01:36:37.989Z,90.32
2023-10-04T01:39:08.863Z,90.09
2023-10-04T01:41:40.353Z,92.01
2023-10-04T01:44:11.141Z,91.29
2023-10-04T01:46:39.714Z,91.82
2023-10-04T01:49:10.622Z,92.84
2023-10-04T01:51:37.967Z,92.51
2023-10-04T01:54:06.282Z,91.66
2023-10-04T01:56:33.800Z,92.43
2023-10-04T01:59:01.575Z,92.77
2023-10-04T02:01:28.866Z,91.82
2023-10-04T02:03:56.896Z,91.13
2023-10-04T02:06:24.607Z,91.12
2023-10-04T02:08:51.769Z,91.88
2023-10-04T02:11:22.916Z,91.17
2023-10-04T02:13:52.175Z,91.59
2023-10-04T02:16:24.278Z,90.88
2023-10-04T02:18:53.491Z,90.71
2023-10-04T02:21:22.433Z,90.55
2023-10-04T02:23:50.492Z,90.33
2023-10-04T02:26:17.538Z,90.24
2023-10-04T02:28:46.538Z,91.48
2023-10-04T02:31:13.832Z,92.44
2023-10-04T02:33:41.077Z,91.68
2023-10-04T02:36:08.941Z,91.67
2023-10-04T02:38:37.945Z,92.43
2023-10-04T02:41:07.440Z,92.75
2023-10-04T02:43:34.889Z,92.85
2023-10-04T02:46:02.275Z,92.15
2023-10-04T02:48:31.959Z,91.89
2023-10-04T02:51:00.192Z,92.54
2023-10-04T02:53:28.517Z,92.29
2023-10-04T02:55:58.556Z,91.88
2023-10-04T02:58:36.168Z,91.79
2023-10-04T03:01:04.962Z,91.71
2023-10-04T03:03:33.257Z,91.43
2023-10-04T03:06:05.921Z,91.31
2023-10-04T03:08:34.135Z,91.18
2023-10-04T03:11:05.443Z,91.53
2023-10-04T03:13:35.820Z,92.54
2023-10-04T03:16:05.354Z,92.82
2023-10-04T03:18:35.235Z,92.91
2023-10-04T03:21:03.582Z,92.63
2023-10-04T03:23:43.406Z,92.06
2023-10-04T03:26:30.442Z,94.15
2023-10-04T03:28:58.780Z,94.61
2023-10-04T03:31:30.335Z,94.27
2023-10-04T03:34:00.556Z,93.42
2023-10-04T03:36:30.717Z,93.33
2023-10-04T03:39:05.171Z,92.92
2023-10-04T03:41:33.962Z,94.35
2023-10-04T03:44:06.932Z,93.33
2023-10-04T03:46:35.454Z,93.34
2023-10-04T03:49:05.593Z,94.62
2023-10-04T03:51:32.924Z,94.33
2023-10-04T03:54:08.364Z,94.78
2023-10-04T03:56:37.490Z,94.43
2023-10-04T03:59:05.114Z,93.96
2023-10-04T04:01:33.447Z,94.04
2023-10-04T04:04:05.148Z,93.45
2023-10-04T04:06:32.547Z,93.22
2023-10-04T04:09:04.622Z,92.76
2023-10-04T04:11:33.021Z,93.11
2023-10-04T04:14:00.134Z,92.93
2023-10-04T04:16:27.350Z,92.83
2023-10-04T04:18:56.463Z,92.54
2023-10-04T04:21:29.945Z,92.23
2023-10-04T04:23:57.401Z,92.33
2023-10-04T04:26:28.756Z,94.04
2023-10-04T04:28:56.409Z,94.41
2023-10-04T04:31:24.343Z,93.55
2023-10-04T04:33:52.218Z,93.95
2023-10-04T04:36:29.156Z,94.00
2023-10-04T04:39:07.519Z,93.95
2023-10-04T04:41:37.016Z,93.85
2023-10-04T04:44:11.332Z,94.25
2023-10-04T04:46:44.650Z,94.08
2023-10-04T04:49:13.315Z,94.41
2023-10-04T04:51:40.699Z,94.40
2023-10-04T04:54:08.102Z,94.95
2023-10-04T04:56:36.826Z,94.40
2023-10-04T04:59:11.662Z,94.91
2023-10-04T05:01:41.633Z,94.46
2023-10-04T05:04:10.153Z,93.63
2023-10-04T05:06:39.585Z,93.49
2023-10-04T05:09:07.775Z,93.85
2023-10-04T05:11:37.818Z,93.88
2023-10-04T05:14:07.960Z,94.33
2023-10-04T05:16:36.033Z,94.51
2023-10-04T05:19:05.816Z,94.19
2023-10-04T05:21:35.713Z,92.54
2023-10-04T05:24:04.337Z,91.01
2023-10-04T05:26:33.269Z,90.61
2023-10-04T05:29:02.375Z,89.29
2023-10-04T05:31:29.756Z,89.26
2023-10-04T05:33:56.855Z,87.96
2023-10-04T05:36:25.470Z,87.53
2023-10-04T05:38:52.623Z,87.67
2023-10-04T05:41:20.718Z,86.88
2023-10-04T05:43:47.779Z,86.95
2023-10-04T05:46:15.493Z,87.26
2023-10-04T05:48:42.708Z,87.04
2023-10-04T05:51:10.137Z,86.07
2023-10-04T05:53:39.114Z,85.52
2023-10-04T05:56:06.672Z,84.70
2023-10-04T05:58:36.077Z,83.94
2023-10-04T06:01:03.680Z,84.31
2023-10-04T06:03:34.306Z,84.80
2023-10-04T06:06:01.770Z,84.10
2023-10-04T06:08:28.961Z,85.03
2023-10-04T06:10:56.472Z,84.23
2023-10-04T06:13:24.322Z,83.45
2023-10-04T06:15:55.974Z,82.40
2023-10-04T06:18:29.918Z,82.08
2023-10-04T06:20:58.121Z,81.94
2023-10-04T06:23:26.090Z,81.28
2023-10-04T06:25:53.328Z,80.57
2023-10-04T06:28:21.411Z,79.88
2023-10-04T06:30:53.863Z,78.75
2023-10-04T06:33:21.487Z,78.37
2023-10-04T06:35:48.961Z,78.28
2023-10-04T06:38:16.612Z,77.27
2023-10-04T06:40:44.862Z,76.97
2023-10-04T06:43:16.158Z,75.51
2023-10-04T06:45:44.184Z,76.01
2023-10-04T06:48:12.020Z,75.21
2023-10-04T06:50:43.248Z,75.65
2023-10-04T06:53:11.047Z,75.35
2023-10-04T06:55:39.288Z,74.48
2023-10-04T06:58:10.285Z,75.14
2023-10-04T07:00:39.264Z,74.76
2023-10-04T07:03:06.945Z,72.86
2023-10-04T07:05:36.387Z,71.59
2023-10-04T07:08:05.691Z,71.50
2023-10-04T07:10:33.557Z,71.55
2023-10-04T07:13:02.995Z,71.23
2023-10-04T07:15:38.033Z,69.40
2023-10-04T07:18:11.083Z,69.52
2023-10-04T07:20:39.676Z,69.69
2023-10-04T07:23:10.137Z,69.41
2023-10-04T07:25:39.227Z,69.61
2023-10-04T07:28:10.437Z,68.77
2023-10-04T07:30:39.186Z,68.25
2023-10-04T07:33:06.675Z,67.50
2023-10-04T07:35:34.978Z,66.98
2023-10-04T07:38:02.806Z,67.11
2023-10-04T07:40:32.306Z,66.67
2023-10-04T07:43:02.425Z,66.10
2023-10-04T07:45:31.323Z,65.68
2023-10-04T07:47:59.295Z,64.73
2023-10-04T07:50:27.827Z,64.58
2023-10-04T07:53:00.252Z,63.88
2023-10-04T07:55:28.140Z,64.16
2023-10-04T07:58:04.392Z,64.11
2023-10-04T08:00:33.325Z,63.44
2023-10-04T08:03:00.666Z,63.05
2023-10-04T08:05:32.656Z,62.10
2023-10-04T08:08:05.070Z,61.61
2023-10-04T08:10:35.083Z,60.72
2023-10-04T08:13:05.259Z,60.36
2023-10-04T08:15:34.489Z,60.52
2023-10-04T08:18:02.990Z,60.15
2023-10-04T08:20:31.633Z,61.04
2023-10-04T08:22:59.312Z,60.77
2023-10-04T08:25:30.070Z,59.96
2023-10-04T08:27:58.691Z,60.57
2023-10-04T08:30:27.117Z,59.86
2023-10-04T08:32:55.187Z,60.01
2023-10-04T08:35:26.233Z,59.85
2023-10-04T08:37:57.686Z,59.35
2023-10-04T08:40:28.755Z,59.07
2023-10-04T08:42:57.369Z,59.02
2023-10-04T08:45:26.511Z,58.23
2023-10-04T08:47:58.454Z,58.27
2023-10-04T08:50:35.905Z,58.26
2023-10-04T08:53:19.852Z,57.29
2023-10-04T08:55:53.068Z,57.40
2023-10-04T08:58:21.220Z,56.24
2023-10-04T09:00:52.391Z,55.81
2023-10-04T09:03:24.238Z,56.32
2023-10-04T09:05:55.517Z,56.06
2023-10-04T09:08:25.852Z,55.61
2023-10-04T09:10:56.549Z,54.41
2023-10-04T09:13:25.011Z,54.53
2023-10-04T09:15:52.746Z,53.93
2023-10-04T09:18:28.015Z,53.14
2023-10-04T09:20:55.575Z,51.81
2023-10-04T09:23:25.852Z,52.36
2023-10-04T09:25:57.077Z,52.05
2023-10-04T09:28:42.287Z,51.65
2023-10-04T09:31:16.601Z,50.74
2023-10-04T09:33:45.483Z,51.36
2023-10-04T09:36:12.939Z,51.12
2023-10-04T09:38:41.085Z,51.30
2023-10-04T09:41:11.842Z,51.13
2023-10-04T09:43:41.676Z,50.18
2023-10-04T09:46:14.152Z,49.84
2023-10-04T09:48:47.835Z,49.29
2023-10-04T09:51:16.057Z,49.00
2023-10-04T09:53:43.824Z,47.98
2023-10-04T09:56:14.752Z,47.91
2023-10-04T09:58:50.932Z,47.89
2023-10-04T10:01:22.192Z,47.80
2023-10-04T10:04:09.381Z,47.75
2023-10-04T10:06:53.093Z,47.81
2023-10-04T10:09:24.363Z,46.72
2023-10-04T10:11:53.903Z,46.27
2023-10-04T10:14:24.595Z,45.86
2023-10-04T10:16:55.912Z,45.52
2023-10-04T10:19:28.413Z,45.79
2023-10-04T10:22:20.416Z,45.42
2023-10-04T10:24:57.861Z,45.18
2023-10-04T10:27:29.973Z,45.38
2023-10-04T10:30:01.032Z,44.20
2023-10-04T10:32:28.251Z,43.94
2023-10-04T10:35:14.203Z,43.45
2023-10-04T10:37:41.669Z,43.56
2023-10-04T10:40:36.341Z,42.03
2023-10-04T10:43:10.897Z,42.08
2023-10-04T10:45:38.882Z,42.58
2023-10-04T10:48:11.499Z,42.23
2023-10-04T10:50:41.324Z,42.45
2023-10-04T10:53:12.312Z,40.65
2023-10-04T10:55:42.913Z,39.95
2023-10-04T10:58:10.164Z,39.99
2023-10-04T11:00:37.502Z,38.79
2023-10-04T11:03:12.565Z,39.32
2023-10-04T11:05:39.983Z,38.35
2023-10-04T11:08:13.629Z,38.93
2023-10-04T11:10:41.929Z,38.67
2023-10-04T11:13:10.221Z,37.94
2023-10-04T11:15:38.105Z,38.12
2023-10-04T11:18:08.100Z,37.33
2023-10-04T11:20:38.577Z,35.75
2023-10-04T11:23:07.381Z,36.90
2023-10-04T11:25:34.561Z,36.19
2023-10-04T11:28:02.078Z,34.27
2023-10-04T11:30:34.659Z,34.34
2023-10-04T11:33:02.328Z,34.11
2023-10-04T11:35:39.721Z,33.15
2023-10-04T11:38:16.722Z,34.03
2023-10-04T11:40:51.306Z,33.94
2023-10-04T11:43:19.270Z,33.75
2023-10-04T11:45:46.620Z,34.00
2023-10-04T11:48:14.553Z,34.28
2023-10-04T11:50:50.222Z,33.62
2023-10-04T11:53:30.589Z,33.25
2023-10-04T11:56:02.761Z,33.06
2023-10-04T11:58:32.248Z,33.69
2023-10-04T12:01:07.188Z,33.86
2023-10-04T12:03:37.486Z,32.91
2023-10-04T12:06:06.523Z,33.68
2023-10-04T12:08:36.460Z,33.97
2023-10-04T12:11:14.695Z,33.66
2023-10-04T12:13:42.087Z,33.72
2023-10-04T12:16:10.103Z,33.62
2023-10-04T12:18:38.634Z,33.97
2023-10-04T12:21:05.744Z,34.12
2023-10-04T12:23:35.588Z,33.84
2023-10-04T12:26:04.672Z,34.39
2023-10-04T12:28:33.627Z,33.72
2023-10-04T12:31:03.369Z,33.89
2023-10-04T12:33:36.340Z,33.69
2023-10-04T12:36:06.437Z,33.87
2023-10-04T12:38:37.988Z,33.21
2023-10-04T12:41:06.563Z,33.17
2023-10-04T12:43:33.673Z,33.30
2023-10-04T12:46:02.426Z,33.11
2023-10-04T12:48:29.924Z,33.21
2023-10-04T12:50:57.130Z,32.83
2023-10-04T12:53:24.926Z,32.34
2023-10-04T12:55:52.083Z,31.92
2023-10-04T12:58:21.635Z,31.47
2023-10-04T13:00:52.829Z,32.11
2023-10-04T13:03:20.487Z,32.66
2023-10-04T13:05:48.180Z,32.28
2023-10-04T13:08:22.559Z,32.06
2023-10-04T13:10:50.331Z,32.46
2023-10-04T13:13:17.663Z,32.08
2023-10-04T13:15:46.242Z,32.13
2023-10-04T13:18:13.401Z,32.15
2023-10-04T13:20:45.797Z,32.27
2023-10-04T13:23:13.493Z,32.21
2023-10-04T13:25:40.736Z,32.85
2023-10-04T13:28:11.665Z,32.60
2023-10-04T13:30:38.849Z,31.91
2023-10-04T13:33:06.311Z,32.11
2023-10-04T13:35:36.196Z,32.95
2023-10-04T13:38:05.340Z,33.13
2023-10-04T13:40:34.905Z,32.33
2023-10-04T13:43:06.544Z,32.21
2023-10-04T13:45:35.562Z,32.68
2023-10-04T13:48:10.605Z,32.50
2023-10-04T13:50:43.538Z,32.54
2023-10-04T13:53:17.480Z,31.80
2023-10-04T13:55:45.790Z,32.60
2023-10-04T13:58:19.790Z,32.31
2023-10-04T14:00:48.059Z,32.44
2023-10-04T14:03:15.415Z,32.92
2023-10-04T14:05:43.328Z,32.96
2023-10-04T14:08:10.872Z,33.15
2023-10-04T14:10:39.082Z,32.83
2023-10-04T14:13:07.891Z,33.12
2023-10-04T14:15:35.233Z,33.27
2023-10-04T14:18:05.993Z,33.12
2023-10-04T14:20:33.237Z,33.58
2023-10-04T14:23:00.469Z,33.78
2023-10-04T14:25:29.656Z,33.68
2023-10-04T14:27:56.778Z,33.50
2023-10-04T14:30:26.683Z,34.44
2023-10-04T14:32:54.677Z,33.70
2023-10-04T14:35:22.696Z,33.33
2023-10-04T14:37:50.353Z,34.02
2023-10-04T14:40:23.809Z,34.02
2023-10-04T14:42:53.625Z,34.09
2023-10-04T14:45:21.255Z,34.43
2023-10-04T14:47:48.581Z,34.89
2023-10-04T14:50:16.089Z,34.65
2023-10-04T14:52:44.174Z,34.11
2023-10-04T14:55:12.337Z,34.28
2023-10-04T14:57:40.576Z,35.54
2023-10-04T15:00:12.294Z,35.14
2023-10-04T15:02:40.105Z,34.31
2023-10-04T15:05:08.231Z,35.32
2023-10-04T15:07:35.852Z,36.43
2023-10-04T15:10:04.192Z,36.81
2023-10-04T15:12:33.412Z,36.77
2023-10-04T15:15:02.009Z,37.44
2023-10-04T15:17:32.030Z,38.13
2023-10-04T15:19:59.169Z,36.96
2023-10-04T15:22:31.675Z,36.85
2023-10-04T15:25:05.112Z,37.77
2023-10-04T15:27:32.600Z,38.31
2023-10-04T15:29:59.827Z,38.78
2023-10-04T15:32:26.950Z,39.35
2023-10-04T15:34:53.904Z,40.42
2023-10-04T15:37:21.201Z,41.01
2023-10-04T15:39:48.246Z,40.98
2023-10-04T15:42:17.020Z,41.26
2023-10-04T15:44:44.048Z,40.61
2023-10-04T15:47:11.032Z,40.74
2023-10-04T15:49:38.591Z,41.59
2023-10-04T15:52:05.872Z,40.70
2023-10-04T15:54:33.820Z,39.84
2023-10-04T15:57:00.869Z,39.37
2023-10-04T15:59:28.544Z,39.58
2023-10-04T16:01:58.374Z,39.87
2023-10-04T16:04:25.722Z,40.50
2023-10-04T16:06:53.067Z,40.43
2023-10-04T16:09:20.335Z,40.62
2023-10-04T16:11:47.416Z,41.33
2023-10-04T16:14:16.088Z,41.70
2023-10-04T16:16:43.259Z,41.43
2023-10-04T16:19:10.462Z,41.80
2023-10-04T16:21:37.690Z,42.76
2023-10-04T16:24:05.209Z,43.55
2023-10-04T16:26:32.633Z,44.37
2023-10-04T16:29:01.439Z,44.15
2023-10-04T16:31:28.868Z,43.96
2023-10-04T16:33:55.864Z,42.92
2023-10-04T16:36:22.889Z,43.56
2023-10-04T16:38:49.998Z,44.47
2023-10-04T16:41:17.014Z,44.15
2023-10-04T16:43:44.202Z,44.98
2023-10-04T16:46:11.263Z,46.11
2023-10-04T16:48:38.621Z,46.04
2023-10-04T16:51:05.944Z,46.11
2023-10-04T16:53:33.093Z,47.13
2023-10-04T16:56:00.247Z,47.98
2023-10-04T16:58:27.273Z,48.07
2023-10-04T17:00:55.151Z,48.17
2023-10-04T17:03:22.436Z,48.35
2023-10-04T17:05:49.602Z,49.17
2023-10-04T17:08:16.630Z,49.56
2023-10-04T17:10:43.750Z,50.29
2023-10-04T17:13:11.875Z,51.20
2023-10-04T17:15:39.262Z,50.12
2023-10-04T17:18:06.839Z,51.28
2023-10-04T17:20:33.872Z,51.60
2023-10-04T17:23:00.877Z,51.67
2023-10-04T17:25:27.967Z,53.18
2023-10-04T17:27:55.289Z,53.84
2023-10-04T17:30:25.201Z,53.68
2023-10-04T17:32:52.324Z,53.84
2023-10-04T17:35:19.582Z,53.71
2023-10-04T17:37:46.921Z,53.57
2023-10-04T17:40:17.171Z,53.12
2023-10-04T17:42:45.929Z,53.43
2023-10-04T17:45:13.419Z,53.50
2023-10-04T17:47:40.733Z,53.70
2023-10-04T17:50:08.843Z,53.43
2023-10-04T17:52:36.034Z,53.92
2023-10-04T17:55:05.402Z,54.07
2023-10-04T17:57:32.914Z,54.49
2023-10-04T18:00:02.632Z,54.85
2023-10-04T18:02:34.822Z,55.16
2023-10-04T18:05:01.957Z,55.57
2023-10-04T18:07:31.046Z,55.51
2023-10-04T18:09:58.978Z,55.92
2023-10-04T18:12:26.775Z,56.25
2023-10-04T18:14:53.918Z,56.98
2023-10-04T18:17:21.082Z,57.41
2023-10-04T18:19:48.284Z,57.32
2023-10-04T18:22:15.454Z,57.62
2023-10-04T18:24:42.923Z,58.03
2023-10-04T18:27:11.291Z,58.27
2023-10-04T18:29:38.815Z,58.61
2023-10-04T18:32:06.007Z,59.10
2023-10-04T18:34:33.648Z,58.95
2023-10-04T18:37:04.231Z,59.76
2023-10-04T18:39:32.386Z,60.22
2023-10-04T18:41:59.618Z,60.58
2023-10-04T18:44:26.608Z,60.65
2023-10-04T18:46:54.025Z,61.58
2023-10-04T18:49:22.761Z,61.07
2023-10-04T18:51:50.258Z,61.31
2023-10-04T18:54:17.652Z,61.50
2023-10-04T18:56:44.800Z,62.17
2023-10-04T18:59:11.868Z,62.40
2023-10-04T19:01:40.647Z,63.22
2023-10-04T19:04:08.772Z,63.32
2023-10-04T19:06:36.837Z,63.20
2023-10-04T19:09:10.545Z,63.69
2023-10-04T19:11:37.895Z,63.34
2023-10-04T19:14:09.073Z,63.99
2023-10-04T19:16:36.295Z,64.14
2023-10-04T19:19:05.145Z,65.35
2023-10-04T19:21:32.359Z,65.50
2023-10-04T19:24:01.128Z,65.94
2023-10-04T19:26:28.421Z,66.52
2023-10-04T19:28:55.977Z,67.04
2023-10-04T19:31:23.201Z,67.50
2023-10-04T19:33:50.487Z,67.61
2023-10-04T19:36:17.853Z,68.41
2023-10-04T19:38:44.836Z,68.69
2023-10-04T19:41:15.059Z,69.22
2023-10-04T19:43:42.105Z,69.03
2023-10-04T19:46:09.737Z,69.58
2023-10-04T19:48:38.792Z,70.21
2023-10-04T19:51:10.876Z,70.61
2023-10-04T19:53:38.137Z,70.73
2023-10-04T19:56:06.908Z,71.05
2023-10-04T19:58:34.065Z,71.74
2023-10-04T20:01:02.661Z,72.27
2023-10-04T20:03:33.285Z,72.69
2023-10-04T20:06:01.777Z,73.65
2023-10-04T20:08:29.719Z,72.56
2023-10-04T20:10:57.738Z,73.00
2023-10-04T20:13:25.574Z,73.74
2023-10-04T20:15:52.821Z,73.81
2023-10-04T20:18:20.061Z,74.28
2023-10-04T20:20:47.225Z,75.52
2023-10-04T20:23:14.603Z,76.12
2023-10-04T20:25:43.014Z,76.41
2023-10-04T20:28:10.429Z,76.30
2023-10-04T20:30:37.601Z,76.75
2023-10-04T20:33:05.188Z,76.49
2023-10-04T20:35:33.410Z,76.75
2023-10-04T20:38:00.476Z,77.21
2023-10-04T20:40:27.494Z,77.80
2023-10-04T20:42:54.917Z,77.80
2023-10-04T20:45:22.024Z,78.98
2023-10-04T20:47:50.632Z,79.46
2023-10-04T20:50:18.507Z,79.72
2023-10-04T20:52:48.707Z,80.09
2023-10-04T20:55:18.915Z,79.44
2023-10-04T20:57:46.801Z,79.60
2023-10-04T21:00:15.755Z,81.00
2023-10-04T21:02:43.728Z,81.06
2023-10-04T21:05:13.821Z,81.04
2023-10-04T21:07:43.442Z,81.57
2023-10-04T21:10:12.858Z,82.20
2023-10-04T21:12:40.912Z,82.12
2023-10-04T21:15:12.905Z,82.10
2023-10-04T21:17:40.911Z,81.74
2023-10-04T21:20:09.662Z,82.33
2023-10-04T21:22:37.160Z,82.63
2023-10-04T21:25:05.851Z,83.55
2023-10-04T21:27:33.427Z,83.74
2023-10-04T21:30:03.199Z,83.70
2023-10-04T21:32:40.593Z,83.07
2023-10-04T21:35:29.389Z,83.61
2023-10-04T21:37:58.403Z,83.11
2023-10-04T21:40:29.376Z,83.38
2023-10-04T21:43:00.727Z,83.51
2023-10-04T21:45:31.604Z,84.10
2023-10-04T21:48:03.794Z,84.36
2023-10-04T21:50:33.824Z,84.61
2023-10-04T21:53:02.232Z,84.03
2023-10-04T21:55:31.221Z,84.47
2023-10-04T21:57:59.950Z,84.61
2023-10-04T22:00:30.249Z,84.93
2023-10-04T22:02:58.675Z,85.22
2023-10-04T22:05:27.067Z,84.63
2023-10-04T22:07:59.945Z,85.10
2023-10-04T22:10:27.211Z,85.75
2023-10-04T22:12:54.529Z,85.46
2023-10-04T22:15:24.898Z,85.12
2023-10-04T22:17:52.476Z,84.58
2023-10-04T22:20:20.943Z,84.89
2023-10-04T22:22:49.580Z,84.85
2023-10-04T22:25:19.660Z,85.37
2023-10-04T22:27:50.442Z,85.34
2023-10-04T22:30:22.696Z,86.76
2023-10-04T22:32:53.106Z,85.62
2023-10-04T22:35:24.213Z,85.62
2023-10-04T22:37:52.833Z,85.86
2023-10-04T22:40:20.785Z,85.33
2023-10-04T22:42:48.708Z,85.84
2023-10-04T22:45:17.110Z,85.25
2023-10-04T22:47:48.279Z,86.19
2023-10-04T22:50:17.872Z,86.61
2023-10-04T22:52:45.112Z,86.03
2023-10-04T22:55:14.130Z,86.73
2023-10-04T22:57:42.936Z,86.67
2023-10-04T23:00:26.868Z,86.70
2023-10-04T23:02:57.737Z,86.16
2023-10-04T23:05:27.194Z,85.90
2023-10-04T23:07:58.381Z,85.71
2023-10-04T23:10:27.119Z,86.16
2023-10-04T23:12:58.592Z,85.96
2023-10-04T23:15:30.196Z,85.66
2023-10-04T23:18:21.883Z,85.36
2023-10-04T23:20:49.354Z,86.05
2023-10-04T23:23:16.932Z,85.70
2023-10-04T23:25:47.634Z,85.78
2023-10-04T23:28:16.563Z,85.87
2023-10-04T23:30:45.468Z,86.22
2023-10-04T23:33:20.980Z,86.15
2023-10-04T23:35:59.593Z,86.16
2023-10-04T23:38:33.904Z,86.42
2023-10-04T23:41:11.499Z,87.20
2023-10-04T23:43:42.543Z,87.39
2023-10-04T23:46:26.846Z,87.58
2023-10-04T23:49:00.196Z,87.22
2023-10-04T23:51:29.129Z,87.73
2023-10-04T23:54:14.911Z,87.16
2023-10-04T23:57:01.934Z,86.99
2023-10-04T23:59:29.259Z,86.63
